Shakawe, Botswana
Current Conditions -  °F | °C
As of 4:00 PM on Sunday 23 Nov 2014 (Local Time) from FBMN Reporting Station
Few Clouds Few Clouds  
Wind Chill: 93°   Ceiling: Unl
Heat Index: 93°   Visibility: 6mi
Dew Point: 54°   Wind: 7mph
Humidity: 26%   Direction: 140°SE
Pressure: 29.97"   Gusts: NA
Location:  18.36°S, 21.84°E
Report Text: FBMN 231400Z 14006KT 9999 FEW030 34/12 Q1015
Loading
Personal Weather Stations






























Interactive Weather Map New forecast layout! Learn more

10-Day Weather Forecast

Advertisements
Track Severe Weather on mobile